sensor_id;sensor_type;location;lat;lon;timestamp;temperature;humidity
2893;DHT22;1456;51.840;12.184;2022-12-07T00:01:14;1.20;99.90
2893;DHT22;1456;51.840;12.184;2022-12-07T00:03:41;1.20;99.90
2893;DHT22;1456;51.840;12.184;2022-12-07T00:06:08;1.30;99.90
2893;DHT22;1456;51.840;12.184;2022-12-07T00:08:35;1.40;99.90
2893;DHT22;1456;51.840;12.184;2022-12-07T00:13:32;1.50;99.90
2893;DHT22;1456;51.840;12.184;2022-12-07T00:16:19;1.30;99.90
2893;DHT22;1456;51.840;12.184;2022-12-07T00:18:46;1.30;99.90
2893;DHT22;1456;51.840;12.184;2022-12-07T00:21:13;1.30;99.90
2893;DHT22;1456;51.840;12.184;2022-12-07T00:23:40;1.30;99.90
2893;DHT22;1456;51.840;12.184;2022-12-07T00:28:38;1.10;99.90
2893;DHT22;1456;51.840;12.184;2022-12-07T00:31:06;1.00;99.90
2893;DHT22;1456;51.840;12.184;2022-12-07T00:33:33;1.00;99.90
2893;DHT22;1456;51.840;12.184;2022-12-07T00:35:59;1.10;99.90
2893;DHT22;1456;51.840;12.184;2022-12-07T00:38:28;1.00;99.90
2893;DHT22;1456;51.840;12.184;2022-12-07T00:40:59;1.20;99.90
2893;DHT22;1456;51.840;12.184;2022-12-07T00:43:26;1.10;99.90
2893;DHT22;1456;51.840;12.184;2022-12-07T00:45:52;1.10;99.90
2893;DHT22;1456;51.840;12.184;2022-12-07T00:48:18;1.00;99.90
2893;DHT22;1456;51.840;12.184;2022-12-07T00:50:44;1.00;99.90
2893;DHT22;1456;51.840;12.184;2022-12-07T00:53:10;1.00;99.90
2893;DHT22;1456;51.840;12.184;2022-12-07T00:55:36;1.10;99.90
2893;DHT22;1456;51.840;12.184;2022-12-07T00:58:02;1.20;99.90
2893;DHT22;1456;51.840;12.184;2022-12-07T01:00:28;1.40;99.90
2893;DHT22;1456;51.840;12.184;2022-12-07T01:02:55;1.50;99.90
2893;DHT22;1456;51.840;12.184;2022-12-07T01:05:20;1.50;99.90
2893;DHT22;1456;51.840;12.184;2022-12-07T01:07:46;1.50;99.90
2893;DHT22;1456;51.840;12.184;2022-12-07T01:10:13;1.60;99.90
2893;DHT22;1456;51.840;12.184;2022-12-07T01:12:39;1.70;99.90
2893;DHT22;1456;51.840;12.184;2022-12-07T01:15:05;1.70;99.90
2893;DHT22;1456;51.840;12.184;2022-12-07T01:17:32;1.60;99.90
2893;DHT22;1456;51.840;12.184;2022-12-07T01:19:58;1.60;99.90
2893;DHT22;1456;51.840;12.184;2022-12-07T01:22:23;1.70;99.90
2893;DHT22;1456;51.840;12.184;2022-12-07T01:24:49;1.60;99.90
2893;DHT22;1456;51.840;12.184;2022-12-07T01:27:15;1.60;99.90
2893;DHT22;1456;51.840;12.184;2022-12-07T01:29:41;1.60;99.90
2893;DHT22;1456;51.840;12.184;2022-12-07T01:32:06;1.60;99.90
2893;DHT22;1456;51.840;12.184;2022-12-07T01:34:32;1.70;99.90
2893;DHT22;1456;51.840;12.184;2022-12-07T01:36:58;1.70;99.90
2893;DHT22;1456;51.840;12.184;2022-12-07T01:39:24;1.70;99.90
2893;DHT22;1456;51.840;12.184;2022-12-07T01:41:50;1.70;99.90
2893;DHT22;1456;51.840;12.184;2022-12-07T01:44:29;1.70;99.90
2893;DHT22;1456;51.840;12.184;2022-12-07T01:47:02;1.80;99.90
2893;DHT22;1456;51.840;12.184;2022-12-07T01:49:41;1.80;99.90
2893;DHT22;1456;51.840;12.184;2022-12-07T01:52:29;1.80;99.90
2893;DHT22;1456;51.840;12.184;2022-12-07T01:55:04;1.90;99.90
2893;DHT22;1456;51.840;12.184;2022-12-07T01:57:32;1.90;99.90
2893;DHT22;1456;51.840;12.184;2022-12-07T01:59:59;1.90;99.90
2893;DHT22;1456;51.840;12.184;2022-12-07T02:02:33;1.80;99.90
2893;DHT22;1456;51.840;12.184;2022-12-07T02:05:00;1.80;99.90
2893;DHT22;1456;51.840;12.184;2022-12-07T02:07:28;1.80;99.90
2893;DHT22;1456;51.840;12.184;2022-12-07T02:09:54;1.80;99.90
2893;DHT22;1456;51.840;12.184;2022-12-07T02:12:20;1.70;99.90
2893;DHT22;1456;51.840;12.184;2022-12-07T02:14:48;1.70;99.90
2893;DHT22;1456;51.840;12.184;2022-12-07T02:22:22;1.80;99.90
2893;DHT22;1456;51.840;12.184;2022-12-07T02:30:51;1.90;99.90
2893;DHT22;1456;51.840;12.184;2022-12-07T02:33:22;2.00;99.90
2893;DHT22;1456;51.840;12.184;2022-12-07T02:39:18;2.10;99.90
2893;DHT22;1456;51.840;12.184;2022-12-07T02:41:52;2.20;99.90
2893;DHT22;1456;51.840;12.184;2022-12-07T02:44:23;2.30;99.90
2893;DHT22;1456;51.840;12.184;2022-12-07T02:46:54;2.20;99.90
2893;DHT22;1456;51.840;12.184;2022-12-07T02:49:22;2.20;99.90
2893;DHT22;1456;51.840;12.184;2022-12-07T02:51:50;2.20;99.90
2893;DHT22;1456;51.840;12.184;2022-12-07T02:54:18;2.20;99.90
2893;DHT22;1456;51.840;12.184;2022-12-07T03:05:45;2.20;99.90
2893;DHT22;1456;51.840;12.184;2022-12-07T03:13:16;2.10;99.90
2893;DHT22;1456;51.840;12.184;2022-12-07T03:18:16;2.20;99.90
2893;DHT22;1456;51.840;12.184;2022-12-07T03:20:44;2.30;99.90
2893;DHT22;1456;51.840;12.184;2022-12-07T03:23:12;2.40;99.90
2893;DHT22;1456;51.840;12.184;2022-12-07T03:25:42;2.20;99.90
2893;DHT22;1456;51.840;12.184;2022-12-07T03:28:10;2.20;99.90
2893;DHT22;1456;51.840;12.184;2022-12-07T03:30:59;2.10;99.90
2893;DHT22;1456;51.840;12.184;2022-12-07T03:33:33;2.10;99.90
2893;DHT22;1456;51.840;12.184;2022-12-07T03:36:05;2.10;99.90
2893;DHT22;1456;51.840;12.184;2022-12-07T03:38:38;2.10;99.90
2893;DHT22;1456;51.840;12.184;2022-12-07T03:41:16;2.10;99.90
2893;DHT22;1456;51.840;12.184;2022-12-07T03:43:45;2.10;99.90
2893;DHT22;1456;51.840;12.184;2022-12-07T03:49:22;2.20;99.90
2893;DHT22;1456;51.840;12.184;2022-12-07T03:54:47;2.30;99.90
2893;DHT22;1456;51.840;12.184;2022-12-07T03:57:15;2.30;99.90
2893;DHT22;1456;51.840;12.184;2022-12-07T03:59:42;2.30;99.90
2893;DHT22;1456;51.840;12.184;2022-12-07T04:02:11;2.30;99.90
2893;DHT22;1456;51.840;12.184;2022-12-07T04:04:38;2.30;99.90
2893;DHT22;1456;51.840;12.184;2022-12-07T04:07:04;2.40;99.90
2893;DHT22;1456;51.840;12.184;2022-12-07T04:09:30;2.30;99.90
2893;DHT22;1456;51.840;12.184;2022-12-07T04:11:55;2.30;99.90
2893;DHT22;1456;51.840;12.184;2022-12-07T04:14:21;2.50;99.90
2893;DHT22;1456;51.840;12.184;2022-12-07T04:16:52;2.40;99.90
2893;DHT22;1456;51.840;12.184;2022-12-07T04:19:20;2.40;99.90
2893;DHT22;1456;51.840;12.184;2022-12-07T04:21:47;2.50;99.90
2893;DHT22;1456;51.840;12.184;2022-12-07T04:24:14;2.60;99.90
2893;DHT22;1456;51.840;12.184;2022-12-07T04:26:41;2.60;99.90
2893;DHT22;1456;51.840;12.184;2022-12-07T04:29:07;2.60;99.90
2893;DHT22;1456;51.840;12.184;2022-12-07T04:31:34;2.70;99.90
2893;DHT22;1456;51.840;12.184;2022-12-07T04:34:00;2.70;99.90
2893;DHT22;1456;51.840;12.184;2022-12-07T04:36:25;2.90;99.90
2893;DHT22;1456;51.840;12.184;2022-12-07T04:38:53;2.80;99.90
2893;DHT22;1456;51.840;12.184;2022-12-07T04:41:20;2.70;99.90
2893;DHT22;1456;51.840;12.184;2022-12-07T04:43:53;2.70;99.90
2893;DHT22;1456;51.840;12.184;2022-12-07T04:46:19;2.70;99.90
2893;DHT22;1456;51.840;12.184;2022-12-07T04:48:45;2.80;99.90
2893;DHT22;1456;51.840;12.184;2022-12-07T04:51:11;2.90;99.90
2893;DHT22;1456;51.840;12.184;2022-12-07T04:53:36;2.90;99.90
2893;DHT22;1456;51.840;12.184;2022-12-07T04:56:02;2.90;99.90
2893;DHT22;1456;51.840;12.184;2022-12-07T04:58:28;2.90;99.90
2893;DHT22;1456;51.840;12.184;2022-12-07T05:00:54;2.90;99.90
2893;DHT22;1456;51.840;12.184;2022-12-07T05:03:20;3.00;99.90
2893;DHT22;1456;51.840;12.184;2022-12-07T05:05:46;3.00;99.90
2893;DHT22;1456;51.840;12.184;2022-12-07T05:08:12;3.00;99.90
2893;DHT22;1456;51.840;12.184;2022-12-07T05:10:40;3.00;99.90
2893;DHT22;1456;51.840;12.184;2022-12-07T05:13:06;3.10;99.90
2893;DHT22;1456;51.840;12.184;2022-12-07T05:15:31;3.10;99.90
2893;DHT22;1456;51.840;12.184;2022-12-07T05:17:57;3.20;99.90
2893;DHT22;1456;51.840;12.184;2022-12-07T05:20:22;3.10;99.90
2893;DHT22;1456;51.840;12.184;2022-12-07T05:22:48;3.20;99.90
2893;DHT22;1456;51.840;12.184;2022-12-07T05:25:14;3.10;99.90
2893;DHT22;1456;51.840;12.184;2022-12-07T05:27:39;3.10;99.90
2893;DHT22;1456;51.840;12.184;2022-12-07T05:30:06;3.10;99.90
2893;DHT22;1456;51.840;12.184;2022-12-07T05:32:32;3.10;99.90
2893;DHT22;1456;51.840;12.184;2022-12-07T05:34:58;3.10;99.90
2893;DHT22;1456;51.840;12.184;2022-12-07T05:37:24;3.20;99.90
2893;DHT22;1456;51.840;12.184;2022-12-07T05:39:49;3.20;99.90
2893;DHT22;1456;51.840;12.184;2022-12-07T05:42:15;3.20;99.90
2893;DHT22;1456;51.840;12.184;2022-12-07T05:44:44;3.20;99.90
2893;DHT22;1456;51.840;12.184;2022-12-07T05:47:12;3.10;99.90
2893;DHT22;1456;51.840;12.184;2022-12-07T05:49:38;3.00;99.90
2893;DHT22;1456;51.840;12.184;2022-12-07T05:52:04;3.00;99.90
2893;DHT22;1456;51.840;12.184;2022-12-07T05:54:30;3.10;99.90
2893;DHT22;1456;51.840;12.184;2022-12-07T05:56:56;3.10;99.90
2893;DHT22;1456;51.840;12.184;2022-12-07T05:59:21;3.10;99.90
2893;DHT22;1456;51.840;12.184;2022-12-07T06:02:00;3.10;99.90
2893;DHT22;1456;51.840;12.184;2022-12-07T06:04:28;3.20;99.90
2893;DHT22;1456;51.840;12.184;2022-12-07T06:06:55;3.30;99.90
2893;DHT22;1456;51.840;12.184;2022-12-07T06:09:22;3.40;99.90
2893;DHT22;1456;51.840;12.184;2022-12-07T06:11:48;3.30;99.90
2893;DHT22;1456;51.840;12.184;2022-12-07T06:14:32;3.20;99.90
2893;DHT22;1456;51.840;12.184;2022-12-07T06:16:58;3.10;99.90
2893;DHT22;1456;51.840;12.184;2022-12-07T06:19:27;2.90;99.90
2893;DHT22;1456;51.840;12.184;2022-12-07T06:21:53;2.80;99.90
2893;DHT22;1456;51.840;12.184;2022-12-07T06:24:19;2.80;99.90
2893;DHT22;1456;51.840;12.184;2022-12-07T06:26:45;2.80;99.90
2893;DHT22;1456;51.840;12.184;2022-12-07T06:29:11;2.80;99.90
2893;DHT22;1456;51.840;12.184;2022-12-07T06:31:37;2.80;99.90
2893;DHT22;1456;51.840;12.184;2022-12-07T06:34:06;2.80;99.90
2893;DHT22;1456;51.840;12.184;2022-12-07T06:36:33;2.90;99.90
2893;DHT22;1456;51.840;12.184;2022-12-07T06:38:58;3.00;99.90
2893;DHT22;1456;51.840;12.184;2022-12-07T06:41:24;3.10;99.90
2893;DHT22;1456;51.840;12.184;2022-12-07T06:43:50;3.10;99.90
2893;DHT22;1456;51.840;12.184;2022-12-07T06:46:16;3.20;99.90
2893;DHT22;1456;51.840;12.184;2022-12-07T06:48:42;3.20;99.90
2893;DHT22;1456;51.840;12.184;2022-12-07T06:51:09;3.30;99.90
2893;DHT22;1456;51.840;12.184;2022-12-07T06:53:35;3.30;99.90
2893;DHT22;1456;51.840;12.184;2022-12-07T06:56:01;3.30;99.90
2893;DHT22;1456;51.840;12.184;2022-12-07T06:58:27;3.30;99.90
2893;DHT22;1456;51.840;12.184;2022-12-07T07:00:53;3.30;99.90
2893;DHT22;1456;51.840;12.184;2022-12-07T07:03:19;3.20;99.90
2893;DHT22;1456;51.840;12.184;2022-12-07T07:05:45;3.10;99.90
2893;DHT22;1456;51.840;12.184;2022-12-07T07:08:11;3.00;99.90
2893;DHT22;1456;51.840;12.184;2022-12-07T07:10:37;2.90;99.90
2893;DHT22;1456;51.840;12.184;2022-12-07T07:13:03;2.90;99.90
2893;DHT22;1456;51.840;12.184;2022-12-07T07:15:29;2.90;99.90
2893;DHT22;1456;51.840;12.184;2022-12-07T07:17:55;2.90;99.90
2893;DHT22;1456;51.840;12.184;2022-12-07T07:20:21;2.90;99.90
2893;DHT22;1456;51.840;12.184;2022-12-07T07:22:47;3.00;99.90
2893;DHT22;1456;51.840;12.184;2022-12-07T07:25:13;3.00;99.90
2893;DHT22;1456;51.840;12.184;2022-12-07T07:27:39;3.00;99.90
2893;DHT22;1456;51.840;12.184;2022-12-07T07:30:06;3.00;99.90
2893;DHT22;1456;51.840;12.184;2022-12-07T07:32:32;3.00;99.90
2893;DHT22;1456;51.840;12.184;2022-12-07T07:34:58;3.10;99.90
2893;DHT22;1456;51.840;12.184;2022-12-07T07:37:24;3.10;99.90
2893;DHT22;1456;51.840;12.184;2022-12-07T07:39:50;3.20;99.90
2893;DHT22;1456;51.840;12.184;2022-12-07T07:42:15;3.20;99.90
2893;DHT22;1456;51.840;12.184;2022-12-07T07:44:41;3.20;99.90
2893;DHT22;1456;51.840;12.184;2022-12-07T07:47:07;3.30;99.90
2893;DHT22;1456;51.840;12.184;2022-12-07T07:49:32;3.30;99.90
2893;DHT22;1456;51.840;12.184;2022-12-07T07:51:58;3.40;99.90
2893;DHT22;1456;51.840;12.184;2022-12-07T07:54:24;3.30;99.90
2893;DHT22;1456;51.840;12.184;2022-12-07T07:56:49;3.40;99.90
2893;DHT22;1456;51.840;12.184;2022-12-07T07:59:15;3.40;99.90
2893;DHT22;1456;51.840;12.184;2022-12-07T08:01:41;3.40;99.90
2893;DHT22;1456;51.840;12.184;2022-12-07T08:04:07;3.50;99.90
2893;DHT22;1456;51.840;12.184;2022-12-07T08:06:32;3.50;99.90
2893;DHT22;1456;51.840;12.184;2022-12-07T08:08:58;3.50;99.90
2893;DHT22;1456;51.840;12.184;2022-12-07T08:11:24;3.50;99.90
2893;DHT22;1456;51.840;12.184;2022-12-07T08:13:50;3.50;99.90
2893;DHT22;1456;51.840;12.184;2022-12-07T08:16:16;3.60;99.90
2893;DHT22;1456;51.840;12.184;2022-12-07T08:18:42;3.60;99.90
2893;DHT22;1456;51.840;12.184;2022-12-07T08:21:11;3.70;99.90
2893;DHT22;1456;51.840;12.184;2022-12-07T08:23:38;3.70;99.90
2893;DHT22;1456;51.840;12.184;2022-12-07T08:26:05;3.70;99.90
2893;DHT22;1456;51.840;12.184;2022-12-07T08:28:32;3.70;99.90
2893;DHT22;1456;51.840;12.184;2022-12-07T08:31:05;3.80;99.90
2893;DHT22;1456;51.840;12.184;2022-12-07T08:33:31;3.80;99.90
2893;DHT22;1456;51.840;12.184;2022-12-07T08:36:01;3.90;99.90
2893;DHT22;1456;51.840;12.184;2022-12-07T08:38:27;4.00;99.90
2893;DHT22;1456;51.840;12.184;2022-12-07T08:40:54;4.00;99.90
2893;DHT22;1456;51.840;12.184;2022-12-07T08:43:21;4.10;99.90
2893;DHT22;1456;51.840;12.184;2022-12-07T08:45:49;4.20;99.90
2893;DHT22;1456;51.840;12.184;2022-12-07T08:48:18;4.30;99.90
2893;DHT22;1456;51.840;12.184;2022-12-07T08:50:47;4.50;99.90
2893;DHT22;1456;51.840;12.184;2022-12-07T08:53:14;4.60;99.90
2893;DHT22;1456;51.840;12.184;2022-12-07T08:55:39;4.50;99.90
2893;DHT22;1456;51.840;12.184;2022-12-07T08:58:05;4.50;99.90
2893;DHT22;1456;51.840;12.184;2022-12-07T09:00:31;4.60;99.90
2893;DHT22;1456;51.840;12.184;2022-12-07T09:02:57;4.60;99.90
2893;DHT22;1456;51.840;12.184;2022-12-07T09:05:22;4.60;99.90
2893;DHT22;1456;51.840;12.184;2022-12-07T09:07:51;4.70;99.90
2893;DHT22;1456;51.840;12.184;2022-12-07T09:10:19;4.80;99.90
2893;DHT22;1456;51.840;12.184;2022-12-07T09:12:45;5.00;99.90
2893;DHT22;1456;51.840;12.184;2022-12-07T09:15:11;5.20;99.90
2893;DHT22;1456;51.840;12.184;2022-12-07T09:17:36;5.30;99.90
2893;DHT22;1456;51.840;12.184;2022-12-07T09:20:04;5.30;99.90
2893;DHT22;1456;51.840;12.184;2022-12-07T09:22:31;5.10;99.90
2893;DHT22;1456;51.840;12.184;2022-12-07T09:24:57;5.00;99.90
2893;DHT22;1456;51.840;12.184;2022-12-07T09:27:24;5.00;99.90
2893;DHT22;1456;51.840;12.184;2022-12-07T09:29:49;4.80;99.90
2893;DHT22;1456;51.840;12.184;2022-12-07T09:32:15;4.80;99.90
2893;DHT22;1456;51.840;12.184;2022-12-07T09:34:41;4.80;99.90
2893;DHT22;1456;51.840;12.184;2022-12-07T09:37:07;4.70;99.90
2893;DHT22;1456;51.840;12.184;2022-12-07T09:39:32;4.70;99.90
2893;DHT22;1456;51.840;12.184;2022-12-07T09:41:59;4.80;99.90
2893;DHT22;1456;51.840;12.184;2022-12-07T09:44:27;4.90;99.90
2893;DHT22;1456;51.840;12.184;2022-12-07T09:46:54;4.90;99.90
2893;DHT22;1456;51.840;12.184;2022-12-07T09:49:22;5.00;99.90
2893;DHT22;1456;51.840;12.184;2022-12-07T09:52:15;4.90;99.90
2893;DHT22;1456;51.840;12.184;2022-12-07T09:54:46;5.00;99.90
2893;DHT22;1456;51.840;12.184;2022-12-07T09:57:12;5.10;99.90
2893;DHT22;1456;51.840;12.184;2022-12-07T09:59:39;5.20;99.90
2893;DHT22;1456;51.840;12.184;2022-12-07T10:02:37;5.10;99.90
2893;DHT22;1456;51.840;12.184;2022-12-07T10:05:10;5.00;99.90
2893;DHT22;1456;51.840;12.184;2022-12-07T10:07:38;5.00;99.90
2893;DHT22;1456;51.840;12.184;2022-12-07T10:10:14;4.90;99.90
2893;DHT22;1456;51.840;12.184;2022-12-07T10:13:01;4.80;99.90
2893;DHT22;1456;51.840;12.184;2022-12-07T10:21:21;4.80;99.90
2893;DHT22;1456;51.840;12.184;2022-12-07T10:26:40;5.00;99.90
2893;DHT22;1456;51.840;12.184;2022-12-07T10:29:33;5.10;99.90
2893;DHT22;1456;51.840;12.184;2022-12-07T10:34:42;5.40;99.90
2893;DHT22;1456;51.840;12.184;2022-12-07T10:37:17;5.60;99.90
2893;DHT22;1456;51.840;12.184;2022-12-07T10:42:23;5.90;99.90
2893;DHT22;1456;51.840;12.184;2022-12-07T10:45:06;5.80;99.90
2893;DHT22;1456;51.840;12.184;2022-12-07T10:47:40;5.80;99.90
2893;DHT22;1456;51.840;12.184;2022-12-07T10:55:58;5.60;99.90
2893;DHT22;1456;51.840;12.184;2022-12-07T10:58:35;5.60;99.90
2893;DHT22;1456;51.840;12.184;2022-12-07T11:01:29;5.50;99.90
2893;DHT22;1456;51.840;12.184;2022-12-07T11:04:13;5.40;99.90
2893;DHT22;1456;51.840;12.184;2022-12-07T11:07:12;5.30;99.90
2893;DHT22;1456;51.840;12.184;2022-12-07T11:20:57;5.90;99.90
2893;DHT22;1456;51.840;12.184;2022-12-07T11:31:47;5.70;99.90
2893;DHT22;1456;51.840;12.184;2022-12-07T11:36:58;5.70;99.90
2893;DHT22;1456;51.840;12.184;2022-12-07T11:39:33;5.70;99.90
2893;DHT22;1456;51.840;12.184;2022-12-07T11:42:09;5.70;99.90
2893;DHT22;1456;51.840;12.184;2022-12-07T11:47:51;6.00;99.90
2893;DHT22;1456;51.840;12.184;2022-12-07T11:50:39;5.90;99.90
2893;DHT22;1456;51.840;12.184;2022-12-07T11:53:25;5.90;99.90
2893;DHT22;1456;51.840;12.184;2022-12-07T12:03:50;5.90;99.90
2893;DHT22;1456;51.840;12.184;2022-12-07T12:06:16;6.00;99.90
2893;DHT22;1456;51.840;12.184;2022-12-07T12:08:43;5.80;99.90
2893;DHT22;1456;51.840;12.184;2022-12-07T12:19:25;5.60;99.90
2893;DHT22;1456;51.840;12.184;2022-12-07T12:22:01;5.60;99.90
2893;DHT22;1456;51.840;12.184;2022-12-07T12:24:31;5.50;99.90
2893;DHT22;1456;51.840;12.184;2022-12-07T12:27:28;5.50;99.90
2893;DHT22;1456;51.840;12.184;2022-12-07T12:30:02;5.40;99.90
2893;DHT22;1456;51.840;12.184;2022-12-07T12:32:39;5.40;99.90
2893;DHT22;1456;51.840;12.184;2022-12-07T12:35:31;5.30;99.90
2893;DHT22;1456;51.840;12.184;2022-12-07T12:38:24;5.20;99.90
2893;DHT22;1456;51.840;12.184;2022-12-07T12:40:50;5.10;99.90
2893;DHT22;1456;51.840;12.184;2022-12-07T12:43:52;5.10;99.90
2893;DHT22;1456;51.840;12.184;2022-12-07T12:49:30;5.00;99.90
2893;DHT22;1456;51.840;12.184;2022-12-07T12:51:59;5.10;99.90
2893;DHT22;1456;51.840;12.184;2022-12-07T12:54:33;5.30;99.90
2893;DHT22;1456;51.840;12.184;2022-12-07T12:59:30;5.50;99.90
2893;DHT22;1456;51.840;12.184;2022-12-07T13:05:00;5.50;99.90
2893;DHT22;1456;51.840;12.184;2022-12-07T13:28:52;5.50;99.90
2893;DHT22;1456;51.840;12.184;2022-12-07T13:31:40;5.60;99.90
2893;DHT22;1456;51.840;12.184;2022-12-07T13:34:30;5.80;99.90
2893;DHT22;1456;51.840;12.184;2022-12-07T13:36:56;5.90;99.90
2893;DHT22;1456;51.840;12.184;2022-12-07T13:39:24;5.90;99.90
2893;DHT22;1456;51.840;12.184;2022-12-07T13:41:56;5.80;99.90
2893;DHT22;1456;51.840;12.184;2022-12-07T13:44:23;5.80;99.90
2893;DHT22;1456;51.840;12.184;2022-12-07T13:49:49;5.40;99.90
2893;DHT22;1456;51.840;12.184;2022-12-07T13:54:48;5.20;99.90
2893;DHT22;1456;51.840;12.184;2022-12-07T13:57:16;5.10;99.90
2893;DHT22;1456;51.840;12.184;2022-12-07T13:59:42;5.10;99.90
2893;DHT22;1456;51.840;12.184;2022-12-07T14:02:30;5.10;99.90
2893;DHT22;1456;51.840;12.184;2022-12-07T14:05:23;5.20;99.90
2893;DHT22;1456;51.840;12.184;2022-12-07T14:07:59;5.10;99.90
2893;DHT22;1456;51.840;12.184;2022-12-07T14:10:33;5.00;99.90
2893;DHT22;1456;51.840;12.184;2022-12-07T14:13:02;5.00;99.90
2893;DHT22;1456;51.840;12.184;2022-12-07T14:15:34;4.90;99.90
2893;DHT22;1456;51.840;12.184;2022-12-07T14:18:01;4.80;99.90
2893;DHT22;1456;51.840;12.184;2022-12-07T14:20:37;4.90;99.90
2893;DHT22;1456;51.840;12.184;2022-12-07T14:23:03;4.90;99.90
2893;DHT22;1456;51.840;12.184;2022-12-07T14:25:50;4.80;99.90
2893;DHT22;1456;51.840;12.184;2022-12-07T14:28:33;4.90;99.90
2893;DHT22;1456;51.840;12.184;2022-12-07T14:31:00;4.90;99.90
2893;DHT22;1456;51.840;12.184;2022-12-07T14:33:26;4.80;99.90
2893;DHT22;1456;51.840;12.184;2022-12-07T14:35:52;4.70;99.90
2893;DHT22;1456;51.840;12.184;2022-12-07T14:38:23;4.60;99.90
2893;DHT22;1456;51.840;12.184;2022-12-07T14:40:50;4.40;99.90
2893;DHT22;1456;51.840;12.184;2022-12-07T14:43:17;4.40;99.90
2893;DHT22;1456;51.840;12.184;2022-12-07T14:45:44;4.40;99.90
2893;DHT22;1456;51.840;12.184;2022-12-07T14:48:14;4.40;99.90
2893;DHT22;1456;51.840;12.184;2022-12-07T14:50:45;4.30;99.90
2893;DHT22;1456;51.840;12.184;2022-12-07T14:53:15;4.30;99.90
2893;DHT22;1456;51.840;12.184;2022-12-07T14:55:41;4.30;99.90
2893;DHT22;1456;51.840;12.184;2022-12-07T14:58:15;4.20;99.90
2893;DHT22;1456;51.840;12.184;2022-12-07T15:00:42;4.20;99.90
2893;DHT22;1456;51.840;12.184;2022-12-07T15:03:08;4.20;99.90
2893;DHT22;1456;51.840;12.184;2022-12-07T15:05:34;4.10;99.90
2893;DHT22;1456;51.840;12.184;2022-12-07T15:08:00;4.10;99.90
2893;DHT22;1456;51.840;12.184;2022-12-07T15:10:29;4.00;99.90
2893;DHT22;1456;51.840;12.184;2022-12-07T15:12:59;4.00;99.90
2893;DHT22;1456;51.840;12.184;2022-12-07T15:15:46;4.00;99.90
2893;DHT22;1456;51.840;12.184;2022-12-07T15:18:12;4.00;99.90
2893;DHT22;1456;51.840;12.184;2022-12-07T15:20:38;4.00;99.90
2893;DHT22;1456;51.840;12.184;2022-12-07T15:23:04;3.90;99.90
2893;DHT22;1456;51.840;12.184;2022-12-07T15:25:30;3.90;99.90
2893;DHT22;1456;51.840;12.184;2022-12-07T15:27:55;3.90;99.90
2893;DHT22;1456;51.840;12.184;2022-12-07T15:30:21;3.90;99.90
2893;DHT22;1456;51.840;12.184;2022-12-07T15:32:50;3.80;99.90
2893;DHT22;1456;51.840;12.184;2022-12-07T15:35:16;3.80;99.90
2893;DHT22;1456;51.840;12.184;2022-12-07T15:37:42;3.70;99.90
2893;DHT22;1456;51.840;12.184;2022-12-07T15:40:08;3.70;99.90
2893;DHT22;1456;51.840;12.184;2022-12-07T15:42:35;3.70;99.90
2893;DHT22;1456;51.840;12.184;2022-12-07T15:45:01;3.70;99.90
2893;DHT22;1456;51.840;12.184;2022-12-07T15:47:35;3.70;99.90
2893;DHT22;1456;51.840;12.184;2022-12-07T15:50:03;3.70;99.90
2893;DHT22;1456;51.840;12.184;2022-12-07T15:52:29;3.70;99.90
2893;DHT22;1456;51.840;12.184;2022-12-07T15:54:55;3.60;99.90
2893;DHT22;1456;51.840;12.184;2022-12-07T15:57:21;3.60;99.90
2893;DHT22;1456;51.840;12.184;2022-12-07T15:59:46;3.60;99.90
2893;DHT22;1456;51.840;12.184;2022-12-07T16:02:12;3.60;99.90
2893;DHT22;1456;51.840;12.184;2022-12-07T16:04:38;3.50;99.90
2893;DHT22;1456;51.840;12.184;2022-12-07T16:07:05;3.40;99.90
2893;DHT22;1456;51.840;12.184;2022-12-07T16:09:31;3.30;99.90
2893;DHT22;1456;51.840;12.184;2022-12-07T16:11:57;3.30;99.90
2893;DHT22;1456;51.840;12.184;2022-12-07T16:14:22;3.30;99.90
2893;DHT22;1456;51.840;12.184;2022-12-07T16:16:48;3.30;99.90
2893;DHT22;1456;51.840;12.184;2022-12-07T16:19:15;3.30;99.90
2893;DHT22;1456;51.840;12.184;2022-12-07T16:21:40;3.30;99.90
2893;DHT22;1456;51.840;12.184;2022-12-07T16:24:08;3.30;99.90
2893;DHT22;1456;51.840;12.184;2022-12-07T16:26:34;3.30;99.90
2893;DHT22;1456;51.840;12.184;2022-12-07T16:28:59;3.30;99.90
2893;DHT22;1456;51.840;12.184;2022-12-07T16:31:28;3.30;99.90
2893;DHT22;1456;51.840;12.184;2022-12-07T16:33:56;3.40;99.90
2893;DHT22;1456;51.840;12.184;2022-12-07T16:36:22;3.40;99.90
2893;DHT22;1456;51.840;12.184;2022-12-07T16:38:50;3.40;99.90
2893;DHT22;1456;51.840;12.184;2022-12-07T16:41:16;3.40;99.90
2893;DHT22;1456;51.840;12.184;2022-12-07T16:43:42;3.50;99.90
2893;DHT22;1456;51.840;12.184;2022-12-07T16:46:07;3.50;99.90
2893;DHT22;1456;51.840;12.184;2022-12-07T16:48:37;3.50;99.90
2893;DHT22;1456;51.840;12.184;2022-12-07T16:51:08;3.40;99.90
2893;DHT22;1456;51.840;12.184;2022-12-07T16:53:35;3.40;99.90
2893;DHT22;1456;51.840;12.184;2022-12-07T16:56:01;3.40;99.90
2893;DHT22;1456;51.840;12.184;2022-12-07T16:58:27;3.40;99.90
2893;DHT22;1456;51.840;12.184;2022-12-07T17:00:53;3.40;99.90
2893;DHT22;1456;51.840;12.184;2022-12-07T17:03:18;3.40;99.90
2893;DHT22;1456;51.840;12.184;2022-12-07T17:05:45;3.40;99.90
2893;DHT22;1456;51.840;12.184;2022-12-07T17:08:12;3.40;99.90
2893;DHT22;1456;51.840;12.184;2022-12-07T17:10:41;3.50;99.90
2893;DHT22;1456;51.840;12.184;2022-12-07T17:13:07;3.50;99.90
2893;DHT22;1456;51.840;12.184;2022-12-07T17:16:00;3.50;99.90
2893;DHT22;1456;51.840;12.184;2022-12-07T17:18:35;3.60;99.90
2893;DHT22;1456;51.840;12.184;2022-12-07T17:21:06;3.60;99.90
2893;DHT22;1456;51.840;12.184;2022-12-07T17:23:32;3.70;99.90
2893;DHT22;1456;51.840;12.184;2022-12-07T17:26:25;3.70;99.90
2893;DHT22;1456;51.840;12.184;2022-12-07T17:28:51;3.70;99.90
2893;DHT22;1456;51.840;12.184;2022-12-07T17:31:18;3.80;99.90
2893;DHT22;1456;51.840;12.184;2022-12-07T17:33:45;3.80;99.90
2893;DHT22;1456;51.840;12.184;2022-12-07T17:36:15;3.70;99.90
2893;DHT22;1456;51.840;12.184;2022-12-07T17:38:41;3.20;99.90
2893;DHT22;1456;51.840;12.184;2022-12-07T17:41:11;2.70;99.90
2893;DHT22;1456;51.840;12.184;2022-12-07T17:43:38;2.50;99.90
2893;DHT22;1456;51.840;12.184;2022-12-07T17:46:10;2.50;99.90
2893;DHT22;1456;51.840;12.184;2022-12-07T17:48:36;2.50;99.90
2893;DHT22;1456;51.840;12.184;2022-12-07T17:51:02;2.40;99.90
2893;DHT22;1456;51.840;12.184;2022-12-07T17:53:50;2.40;99.90
2893;DHT22;1456;51.840;12.184;2022-12-07T17:56:16;2.50;99.90
2893;DHT22;1456;51.840;12.184;2022-12-07T17:58:43;2.60;99.90
2893;DHT22;1456;51.840;12.184;2022-12-07T18:01:09;2.60;99.90
2893;DHT22;1456;51.840;12.184;2022-12-07T18:03:35;2.60;99.90
2893;DHT22;1456;51.840;12.184;2022-12-07T18:06:01;2.60;99.90
2893;DHT22;1456;51.840;12.184;2022-12-07T18:08:27;2.60;99.90
2893;DHT22;1456;51.840;12.184;2022-12-07T18:10:59;2.70;99.90
2893;DHT22;1456;51.840;12.184;2022-12-07T18:13:25;2.80;99.90
2893;DHT22;1456;51.840;12.184;2022-12-07T18:16:08;2.80;99.90
2893;DHT22;1456;51.840;12.184;2022-12-07T18:18:35;2.70;99.90
2893;DHT22;1456;51.840;12.184;2022-12-07T18:21:07;2.60;99.90
2893;DHT22;1456;51.840;12.184;2022-12-07T18:23:33;2.70;99.90
2893;DHT22;1456;51.840;12.184;2022-12-07T18:25:59;2.60;99.90
2893;DHT22;1456;51.840;12.184;2022-12-07T18:28:26;2.70;99.90
2893;DHT22;1456;51.840;12.184;2022-12-07T18:30:53;2.70;99.90
2893;DHT22;1456;51.840;12.184;2022-12-07T18:33:20;2.70;99.90